Time;durP1;ratioP1;P1;durP2;ratioP2;P2;SDS_P1;SDS_P2;PMS_P1;PMS_P2;Temp;Humidity;BMP_temperature;BMP_pressure;BME280_temperature;BME280_humidity;BME280_pressure;Samples;Min_cycle;Max_cycle;Signal;HPM_P1;HPM_P2
2022/09/15 00:00:21;;;;;;;5.20;2.13;;;21.20;99.90;;;;;;5069221;28;20029;-88
2022/09/15 00:02:46;;;;;;;7.72;2.30;;;21.20;99.90;;;;;;5069090;28;20473;-86
2022/09/15 00:05:12;;;;;;;9.45;2.90;;;21.20;99.90;;;;;;5069020;28;20017;-85
2022/09/15 00:07:38;;;;;;;8.45;2.60;;;21.20;99.90;;;;;;5068806;28;20170;-86
2022/09/15 00:10:05;;;;;;;8.13;3.15;;;21.20;99.90;;;;;;5069206;28;20032;-86
2022/09/15 00:12:32;;;;;;;4.50;2.13;;;21.20;99.90;;;;;;5061289;28;20031;-88
2022/09/15 00:14:58;;;;;;;8.07;2.45;;;21.10;99.90;;;;;;5069099;28;20021;-86
2022/09/15 00:17:24;;;;;;;7.35;2.30;;;21.10;99.90;;;;;;5069161;28;20033;-85
2022/09/15 00:19:49;;;;;;;7.63;2.10;;;21.10;99.90;;;;;;5069459;28;20577;-86
2022/09/15 00:22:15;;;;;;;6.63;2.30;;;21.10;99.90;;;;;;5069026;28;20028;-87
2022/09/15 00:24:41;;;;;;;7.75;2.10;;;21.00;99.90;;;;;;5068764;28;20712;-87
2022/09/15 00:27:07;;;;;;;5.18;2.08;;;21.00;99.90;;;;;;5068654;28;20017;-86
2022/09/15 00:29:34;;;;;;;7.32;1.73;;;21.00;99.90;;;;;;5068838;28;20496;-88
2022/09/15 00:32:00;;;;;;;6.20;1.85;;;21.00;99.90;;;;;;5067078;28;20044;-86
2022/09/15 00:34:26;;;;;;;8.35;2.10;;;21.00;99.90;;;;;;5071025;28;20036;-87
2022/09/15 00:36:51;;;;;;;7.30;2.00;;;21.00;99.90;;;;;;5072300;28;20401;-86
2022/09/15 00:39:17;;;;;;;7.63;1.90;;;21.00;99.90;;;;;;5072496;28;20108;-86
2022/09/15 00:41:43;;;;;;;6.38;1.80;;;20.90;99.90;;;;;;5063846;28;20381;-86
2022/09/15 00:44:17;;;;;;;5.50;2.10;;;20.90;99.90;;;;;;5070671;28;20054;-86
2022/09/15 00:46:47;;;;;;;5.18;1.90;;;21.00;99.90;;;;;;5071952;28;20028;-86
2022/09/15 00:49:17;;;;;;;7.63;1.95;;;21.00;99.90;;;;;;5072253;28;20025;-86
2022/09/15 00:51:57;;;;;;;7.70;2.13;;;20.90;99.90;;;;;;5072236;28;20025;-84
2022/09/15 00:54:29;;;;;;;7.68;1.83;;;20.90;99.90;;;;;;5072158;28;20038;-85
2022/09/15 00:56:58;;;;;;;6.28;2.28;;;20.90;99.90;;;;;;5064787;28;20039;-84
2022/09/15 00:59:27;;;;;;;6.40;2.22;;;20.90;99.90;;;;;;5066002;28;20055;-86
2022/09/15 01:02:02;;;;;;;7.55;2.05;;;20.80;99.90;;;;;;5072147;28;20112;-85
2022/09/15 01:04:27;;;;;;;6.68;2.00;;;20.80;99.90;;;;;;5066569;28;20499;-85
2022/09/15 01:06:57;;;;;;;6.63;2.05;;;20.80;99.90;;;;;;5071845;28;20028;-85
2022/09/15 01:09:28;;;;;;;7.15;1.98;;;20.80;99.90;;;;;;5071756;28;20175;-85
2022/09/15 01:11:54;;;;;;;9.40;2.42;;;20.80;99.90;;;;;;5071420;28;20024;-86
2022/09/15 01:14:19;;;;;;;9.25;2.30;;;20.80;99.90;;;;;;5071738;28;20043;-85
2022/09/15 01:16:54;;;;;;;6.97;2.03;;;20.80;99.90;;;;;;5071729;28;20090;-86
2022/09/15 01:19:38;;;;;;;4.50;1.80;;;20.80;99.90;;;;;;5071645;28;20016;-86
2022/09/15 01:22:21;;;;;;;7.50;2.53;;;20.70;99.90;;;;;;5071637;28;20084;-85
2022/09/15 01:25:06;;;;;;;6.65;2.15;;;20.70;99.90;;;;;;5071380;28;20070;-86
2022/09/15 01:27:51;;;;;;;7.95;2.80;;;20.70;99.90;;;;;;5066474;28;20023;-85
2022/09/15 01:30:20;;;;;;;6.63;2.20;;;20.80;99.90;;;;;;5071595;28;20027;-85
2022/09/15 01:33:04;;;;;;;7.20;2.45;;;20.80;99.90;;;;;;5071143;28;20040;-85
2022/09/15 01:35:56;;;;;;;7.57;2.53;;;20.70;99.90;;;;;;5069935;28;20032;-86
2022/09/15 01:38:46;;;;;;;5.70;1.92;;;20.70;99.90;;;;;;5069859;28;20404;-85
2022/09/15 01:41:26;;;;;;;6.82;2.17;;;20.70;99.90;;;;;;5071126;28;20120;-85
2022/09/15 01:43:59;;;;;;;6.25;2.15;;;20.70;99.90;;;;;;5071195;28;20027;-85
2022/09/15 01:46:29;;;;;;;8.70;2.38;;;20.70;99.90;;;;;;5070071;28;20524;-84
2022/09/15 01:48:57;;;;;;;6.18;2.10;;;20.70;99.90;;;;;;5070802;28;20016;-85
2022/09/15 01:51:25;;;;;;;9.45;2.58;;;20.70;99.90;;;;;;5069551;28;20028;-86
2022/09/15 01:53:53;;;;;;;6.78;2.10;;;20.70;99.90;;;;;;5069384;28;20021;-85
2022/09/15 01:56:19;;;;;;;6.90;2.33;;;20.70;99.90;;;;;;5070758;28;20102;-86
2022/09/15 01:58:48;;;;;;;6.57;2.00;;;20.80;99.90;;;;;;5070974;28;20480;-85
2022/09/15 02:01:18;;;;;;;5.50;2.25;;;20.80;99.90;;;;;;5069482;28;20025;-85
2022/09/15 02:03:59;;;;;;;8.75;2.50;;;20.80;99.90;;;;;;5064355;28;20586;-86
2022/09/15 02:06:26;;;;;;;6.68;2.40;;;20.80;99.90;;;;;;5066886;28;20031;-85
2022/09/15 02:09:00;;;;;;;6.03;2.03;;;20.80;99.90;;;;;;5070583;28;20016;-85
2022/09/15 02:11:27;;;;;;;8.20;2.55;;;20.80;99.90;;;;;;5070173;28;20052;-86
2022/09/15 02:14:16;;;;;;;5.72;2.67;;;20.80;99.90;;;;;;5068633;28;20032;-85
2022/09/15 02:16:47;;;;;;;5.95;2.53;;;20.80;99.90;;;;;;5064423;28;20063;-86
2022/09/15 02:19:30;;;;;;;5.25;2.10;;;20.80;99.90;;;;;;5069191;28;20484;-85
2022/09/15 02:22:22;;;;;;;7.80;3.05;;;20.80;99.90;;;;;;5070313;28;20119;-86
2022/09/15 02:25:03;;;;;;;7.35;2.35;;;20.80;99.90;;;;;;5070397;28;20082;-84
2022/09/15 02:27:33;;;;;;;6.85;2.47;;;20.80;99.90;;;;;;5069650;28;20029;-85
2022/09/15 02:30:04;;;;;;;4.60;2.40;;;20.80;99.90;;;;;;5068587;28;20637;-85
2022/09/15 02:32:33;;;;;;;6.38;2.15;;;20.80;99.90;;;;;;5069852;28;20094;-86
2022/09/15 02:35:03;;;;;;;7.57;2.63;;;20.80;99.90;;;;;;5070103;28;20033;-85
2022/09/15 02:37:29;;;;;;;6.65;2.40;;;20.80;99.90;;;;;;5070049;28;20127;-86
2022/09/15 02:39:57;;;;;;;6.50;2.45;;;20.80;99.90;;;;;;5070148;28;20082;-86
2022/09/15 02:42:28;;;;;;;11.20;3.15;;;20.80;99.90;;;;;;5069114;28;20017;-86
2022/09/15 02:44:54;;;;;;;4.72;2.47;;;20.90;99.90;;;;;;5060159;28;20031;-85
2022/09/15 02:47:19;;;;;;;5.80;2.38;;;20.90;99.90;;;;;;5069825;28;20016;-85
2022/09/15 02:49:45;;;;;;;8.68;2.42;;;20.90;99.90;;;;;;5068567;28;20020;-85
2022/09/15 02:52:11;;;;;;;5.85;2.83;;;20.80;99.90;;;;;;5069808;28;20020;-85
2022/09/15 02:54:36;;;;;;;5.32;2.40;;;20.80;99.90;;;;;;5069793;28;20027;-85
2022/09/15 02:57:02;;;;;;;6.32;2.53;;;20.80;99.90;;;;;;5067804;28;20043;-86
2022/09/15 03:00:12;;;;;;;4.70;2.65;;;20.80;99.90;;;;;;5058722;28;20025;-85
2022/09/15 03:02:18;;;;;;;5.25;2.67;;;20.80;99.90;;;;;;5069744;28;20028;-85
2022/09/15 03:04:47;;;;;;;6.35;2.58;;;20.70;99.90;;;;;;5068069;28;20039;-86
2022/09/15 03:07:13;;;;;;;5.53;2.50;;;20.70;99.90;;;;;;5068228;28;20190;-85
2022/09/15 03:09:39;;;;;;;8.07;3.25;;;20.70;99.90;;;;;;5069578;28;20034;-85
2022/09/15 03:12:05;;;;;;;5.82;3.00;;;20.70;99.90;;;;;;5067817;28;20032;-87
2022/09/15 03:14:31;;;;;;;6.57;2.80;;;20.60;99.90;;;;;;5061565;28;20031;-85
2022/09/15 03:16:58;;;;;;;7.22;2.95;;;20.60;99.90;;;;;;5069481;28;20036;-85
2022/09/15 03:19:24;;;;;;;5.03;2.65;;;20.60;99.90;;;;;;5069720;28;20021;-86
2022/09/15 03:21:50;;;;;;;4.35;3.20;;;20.60;99.90;;;;;;5064102;28;20062;-86
2022/09/15 03:24:18;;;;;;;6.18;2.90;;;20.60;99.90;;;;;;5069568;28;20078;-84
2022/09/15 03:26:44;;;;;;;4.35;2.85;;;20.50;99.90;;;;;;5069155;28;20013;-85
2022/09/15 03:29:09;;;;;;;7.20;3.47;;;20.50;99.90;;;;;;5069294;28;20148;-85
2022/09/15 03:31:35;;;;;;;8.48;3.30;;;20.50;99.90;;;;;;5069333;28;20543;-85
2022/09/15 03:34:00;;;;;;;6.10;2.60;;;20.50;99.90;;;;;;5068127;28;20032;-85
2022/09/15 03:36:26;;;;;;;9.15;2.97;;;20.50;99.90;;;;;;5068837;28;20029;-85
2022/09/15 03:38:52;;;;;;;7.80;3.45;;;20.50;99.90;;;;;;5069356;28;20017;-85
2022/09/15 03:41:17;;;;;;;7.05;3.85;;;20.50;99.90;;;;;;5069111;28;20025;-86
2022/09/15 03:43:43;;;;;;;5.45;3.80;;;20.50;99.90;;;;;;5063661;28;20021;-85
2022/09/15 03:46:10;;;;;;;6.68;4.25;;;20.50;99.90;;;;;;5068172;28;20161;-86
2022/09/15 03:48:36;;;;;;;6.63;4.10;;;20.60;99.90;;;;;;5069417;28;20096;-87
2022/09/15 03:51:03;;;;;;;8.13;4.30;;;20.60;99.90;;;;;;5067563;28;20025;-85
2022/09/15 03:53:33;;;;;;;12.02;3.72;;;20.60;99.90;;;;;;5067265;28;20100;-85
2022/09/15 03:56:16;;;;;;;8.80;3.60;;;20.70;99.90;;;;;;5068997;28;20512;-85
2022/09/15 03:58:41;;;;;;;9.32;3.95;;;20.60;99.90;;;;;;5067090;28;20013;-85
2022/09/15 04:01:08;;;;;;;11.13;3.60;;;20.60;99.90;;;;;;5069295;28;20516;-84
2022/09/15 04:03:34;;;;;;;7.43;3.75;;;20.60;99.90;;;;;;5069254;28;20025;-86
2022/09/15 04:05:59;;;;;;;6.13;3.65;;;20.60;99.90;;;;;;5069195;28;20031;-86
2022/09/15 04:08:25;;;;;;;8.38;4.32;;;20.60;99.90;;;;;;5069672;28;20041;-86
2022/09/15 04:10:51;;;;;;;5.60;2.90;;;20.60;99.90;;;;;;5072827;28;20031;-85
2022/09/15 04:13:17;;;;;;;5.07;2.83;;;20.50;99.90;;;;;;5072530;28;20059;-86
2022/09/15 04:15:43;;;;;;;4.80;3.03;;;20.50;99.90;;;;;;5072609;28;20110;-85
2022/09/15 04:18:09;;;;;;;8.40;3.40;;;20.50;99.90;;;;;;5082791;28;20047;-85
2022/09/15 04:20:38;;;;;;;8.68;3.42;;;20.50;99.90;;;;;;5082300;28;20017;-85
2022/09/15 04:23:04;;;;;;;6.78;2.72;;;20.50;99.90;;;;;;5076852;28;20451;-84
2022/09/15 04:25:29;;;;;;;5.55;3.00;;;20.50;99.90;;;;;;5072776;28;20028;-87
2022/09/15 04:27:56;;;;;;;3.45;2.78;;;20.50;99.90;;;;;;5069532;28;20067;-85
2022/09/15 04:30:22;;;;;;;7.35;3.08;;;20.40;99.90;;;;;;5072560;28;20033;-85
2022/09/15 04:32:48;;;;;;;6.90;3.05;;;20.40;99.90;;;;;;5064377;28;20046;-85
2022/09/15 04:35:15;;;;;;;6.32;2.97;;;20.40;99.90;;;;;;5072344;28;20079;-86
2022/09/15 04:37:41;;;;;;;4.80;3.00;;;20.40;99.90;;;;;;5070693;28;20031;-85
2022/09/15 04:40:09;;;;;;;5.85;2.67;;;20.30;99.90;;;;;;5072299;28;20481;-85
2022/09/15 04:42:34;;;;;;;6.72;2.42;;;20.40;99.90;;;;;;5070588;28;20035;-85
2022/09/15 04:45:00;;;;;;;6.40;3.15;;;20.40;99.90;;;;;;5072327;28;20017;-86
2022/09/15 04:47:26;;;;;;;7.18;2.90;;;20.40;99.90;;;;;;5072275;28;20032;-85
2022/09/15 04:49:51;;;;;;;7.03;3.03;;;20.40;99.90;;;;;;5072165;28;20021;-85
2022/09/15 04:52:17;;;;;;;8.25;3.72;;;20.30;99.90;;;;;;5072104;28;20099;-85
2022/09/15 04:54:43;;;;;;;11.45;3.83;;;20.30;99.90;;;;;;5071835;28;20476;-85
2022/09/15 04:57:09;;;;;;;7.63;3.85;;;20.30;99.90;;;;;;5071659;28;20081;-85
2022/09/15 04:59:35;;;;;;;7.32;3.40;;;20.30;99.90;;;;;;5072240;28;20379;-85
2022/09/15 05:02:01;;;;;;;5.72;3.00;;;20.30;99.90;;;;;;5071901;28;20024;-85
2022/09/15 05:04:26;;;;;;;10.20;3.90;;;20.20;99.90;;;;;;5072178;28;20024;-85
2022/09/15 05:06:52;;;;;;;7.82;4.20;;;20.20;99.90;;;;;;5071862;28;20588;-85
2022/09/15 05:09:18;;;;;;;10.13;4.15;;;20.20;99.90;;;;;;5071936;28;20377;-84
2022/09/15 05:11:43;;;;;;;6.78;3.95;;;20.20;99.90;;;;;;5071552;28;20516;-86
2022/09/15 05:14:09;;;;;;;7.93;3.90;;;20.10;99.90;;;;;;5071681;28;20016;-85
2022/09/15 05:16:36;;;;;;;8.82;4.40;;;20.10;99.90;;;;;;5065300;28;20115;-85
2022/09/15 05:19:03;;;;;;;8.95;4.50;;;20.20;99.90;;;;;;5071587;28;20016;-85
2022/09/15 05:21:29;;;;;;;9.50;4.20;;;20.20;99.90;;;;;;5071754;28;20020;-85
2022/09/15 05:23:55;;;;;;;10.27;4.38;;;20.20;99.90;;;;;;5071607;28;20013;-85
2022/09/15 05:26:27;;;;;;;9.18;4.50;;;20.30;99.90;;;;;;5071342;28;20016;-85
2022/09/15 05:28:53;;;;;;;5.78;4.15;;;20.40;99.90;;;;;;5071593;28;20371;-85
2022/09/15 05:31:21;;;;;;;7.00;4.18;;;20.40;99.90;;;;;;5071294;28;20043;-87
2022/09/15 05:33:49;;;;;;;9.07;4.55;;;20.40;99.90;;;;;;5071250;28;20071;-85
2022/09/15 05:36:16;;;;;;;7.35;4.00;;;20.40;99.90;;;;;;5069382;28;20031;-86
2022/09/15 05:38:42;;;;;;;8.00;4.47;;;20.40;99.90;;;;;;5069656;28;20028;-82
2022/09/15 05:41:13;;;;;;;9.85;4.88;;;20.40;99.90;;;;;;5070916;28;20054;-82
2022/09/15 05:43:39;;;;;;;9.00;4.50;;;20.40;99.90;;;;;;5074135;28;20029;-82
2022/09/15 05:46:06;;;;;;;8.07;3.83;;;20.40;99.90;;;;;;5072137;28;20031;-82
2022/09/15 05:48:33;;;;;;;8.75;4.72;;;20.50;99.90;;;;;;5077428;28;20023;-82
2022/09/15 05:50:59;;;;;;;10.05;4.25;;;20.50;99.90;;;;;;5073897;28;20043;-82
2022/09/15 05:53:25;;;;;;;9.65;3.85;;;20.60;99.90;;;;;;5069868;28;20016;-82
2022/09/15 05:55:58;;;;;;;7.60;3.70;;;20.50;99.90;;;;;;5071326;28;20039;-82
2022/09/15 05:58:24;;;;;;;6.60;4.10;;;20.60;99.90;;;;;;5070297;28;20032;-82
2022/09/15 06:00:52;;;;;;;8.63;4.68;;;20.60;99.90;;;;;;5070312;28;20020;-81
2022/09/15 06:03:18;;;;;;;6.72;3.38;;;20.60;99.90;;;;;;5070935;28;20486;-82
2022/09/15 06:05:44;;;;;;;4.70;2.80;;;20.50;99.90;;;;;;5071935;28;20040;-81
2022/09/15 06:08:09;;;;;;;6.50;3.08;;;20.60;99.90;;;;;;5070255;28;20020;-82
2022/09/15 06:10:35;;;;;;;5.18;2.35;;;20.60;99.90;;;;;;5077163;28;20235;-82
2022/09/15 06:13:01;;;;;;;4.63;2.40;;;20.70;99.90;;;;;;5081354;28;20095;-82
2022/09/15 06:15:26;;;;;;;3.97;2.42;;;20.70;99.90;;;;;;5079103;28;20504;-82
2022/09/15 06:17:52;;;;;;;6.25;2.50;;;20.80;99.90;;;;;;5081958;28;20078;-82
2022/09/15 06:20:18;;;;;;;6.15;2.97;;;20.80;99.90;;;;;;5079634;28;20016;-82
2022/09/15 06:22:47;;;;;;;4.72;2.33;;;20.80;99.90;;;;;;5071644;28;20037;-82
2022/09/15 06:25:13;;;;;;;4.30;2.25;;;20.80;99.90;;;;;;5078677;28;20186;-82
2022/09/15 06:27:39;;;;;;;5.38;2.30;;;20.70;99.90;;;;;;5075357;28;20017;-81
2022/09/15 06:30:07;;;;;;;3.60;2.15;;;20.80;99.90;;;;;;5073073;28;20029;-82
2022/09/15 06:32:33;;;;;;;6.25;2.10;;;20.90;99.90;;;;;;5078478;28;20045;-82
2022/09/15 06:34:59;;;;;;;6.45;2.08;;;20.90;99.90;;;;;;5077636;28;20032;-82
2022/09/15 06:37:25;;;;;;;3.63;2.20;;;21.00;99.90;;;;;;5080414;28;20213;-82
2022/09/15 06:39:50;;;;;;;3.80;2.20;;;21.00;99.90;;;;;;5080566;28;20036;-82
2022/09/15 06:42:16;;;;;;;6.47;2.20;;;21.00;99.90;;;;;;5074301;28;20047;-82
2022/09/15 06:44:41;;;;;;;3.20;1.77;;;21.10;99.90;;;;;;5076337;28;20066;-82
2022/09/15 06:47:09;;;;;;;3.55;2.47;;;21.10;99.90;;;;;;5081347;28;20042;-82
2022/09/15 06:49:35;;;;;;;2.92;2.05;;;21.20;99.90;;;;;;5081547;28;20208;-83
2022/09/15 06:52:01;;;;;;;5.53;2.35;;;21.10;99.90;;;;;;5073058;28;20036;-82
2022/09/15 06:54:27;;;;;;;4.93;2.33;;;21.20;99.90;;;;;;5074903;28;20044;-82
2022/09/15 06:56:52;;;;;;;3.95;2.08;;;21.20;99.90;;;;;;5080926;28;20304;-82
2022/09/15 06:59:18;;;;;;;7.47;2.50;;;21.30;99.90;;;;;;5081059;28;20194;-82
2022/09/15 07:01:43;;;;;;;4.57;1.98;;;21.30;99.90;;;;;;5081557;28;20022;-82
2022/09/15 07:04:09;;;;;;;4.72;2.25;;;21.30;99.90;;;;;;5081170;28;20020;-82
2022/09/15 07:06:37;;;;;;;4.82;2.15;;;21.30;99.90;;;;;;5081289;28;20062;-82
2022/09/15 07:09:05;;;;;;;4.68;2.22;;;21.40;99.90;;;;;;5080936;28;20356;-82
2022/09/15 07:11:31;;;;;;;6.00;2.55;;;21.50;99.90;;;;;;5072462;28;20527;-82
2022/09/15 07:13:57;;;;;;;8.45;2.60;;;21.60;99.90;;;;;;5081080;28;20028;-82
2022/09/15 07:16:26;;;;;;;5.18;2.30;;;21.60;99.90;;;;;;5081124;28;20117;-82
2022/09/15 07:18:55;;;;;;;6.15;2.58;;;21.70;99.90;;;;;;5081133;28;20347;-82
2022/09/15 07:21:22;;;;;;;4.50;2.75;;;21.70;99.90;;;;;;5080999;28;20224;-82
2022/09/15 07:23:48;;;;;;;6.43;2.35;;;21.70;99.90;;;;;;5081000;28;20012;-83
2022/09/15 07:26:18;;;;;;;9.60;2.90;;;21.70;99.90;;;;;;5079667;28;20024;-82
2022/09/15 07:28:48;;;;;;;6.00;2.50;;;21.70;99.90;;;;;;5068957;28;20032;-82
2022/09/15 07:31:15;;;;;;;6.93;3.03;;;21.70;99.90;;;;;;5069409;28;20056;-82
2022/09/15 07:33:41;;;;;;;8.13;2.60;;;21.70;99.90;;;;;;5063206;28;20051;-82
2022/09/15 07:36:09;;;;;;;8.82;3.58;;;21.70;99.90;;;;;;5069407;28;20087;-82
2022/09/15 07:38:38;;;;;;;4.57;2.75;;;21.80;99.90;;;;;;5069655;28;20032;-82
2022/09/15 07:41:09;;;;;;;7.55;2.83;;;21.80;99.90;;;;;;5069127;28;20028;-82
2022/09/15 07:43:35;;;;;;;5.20;2.35;;;21.90;99.90;;;;;;5072480;28;20085;-82
2022/09/15 07:46:01;;;;;;;5.20;2.72;;;22.00;99.90;;;;;;5071779;28;20103;-82
2022/09/15 07:48:28;;;;;;;7.63;3.22;;;22.10;99.90;;;;;;5072944;28;20043;-81
2022/09/15 07:50:53;;;;;;;6.00;2.80;;;22.20;99.90;;;;;;5072940;28;20035;-81
2022/09/15 07:53:20;;;;;;;8.07;2.70;;;22.10;99.90;;;;;;5073072;28;20021;-81
2022/09/15 07:55:50;;;;;;;6.57;2.60;;;22.20;99.90;;;;;;5072278;28;20090;-81
2022/09/15 07:58:17;;;;;;;6.25;2.50;;;22.30;99.90;;;;;;5076553;28;20045;-81
2022/09/15 08:00:43;;;;;;;7.28;2.90;;;22.30;99.90;;;;;;5084205;28;20356;-81
2022/09/15 08:03:11;;;;;;;6.75;2.65;;;22.40;99.90;;;;;;5079751;28;20113;-82
2022/09/15 08:05:37;;;;;;;6.15;2.35;;;22.50;99.90;;;;;;5079267;28;20085;-83
2022/09/15 08:08:03;;;;;;;4.82;2.30;;;22.50;99.90;;;;;;5082508;28;20024;-83
2022/09/15 08:10:28;;;;;;;5.05;2.38;;;22.40;99.90;;;;;;5082487;28;20228;-83
2022/09/15 08:12:54;;;;;;;6.75;2.88;;;22.40;99.90;;;;;;5081547;28;20307;-82
2022/09/15 08:15:20;;;;;;;7.90;2.85;;;22.40;99.90;;;;;;5083746;28;20080;-83
2022/09/15 08:17:46;;;;;;;7.28;2.80;;;22.30;99.90;;;;;;5082167;28;20410;-83
2022/09/15 08:20:12;;;;;;;8.00;3.28;;;22.40;99.90;;;;;;5081505;28;20040;-83
2022/09/15 08:22:39;;;;;;;7.28;2.88;;;22.40;99.90;;;;;;5083564;28;20015;-83
2022/09/15 08:25:05;;;;;;;6.32;2.50;;;22.40;99.90;;;;;;5083934;28;20323;-83
2022/09/15 08:27:31;;;;;;;5.22;2.60;;;22.50;99.90;;;;;;5084076;28;20043;-83
2022/09/15 08:29:56;;;;;;;7.03;3.00;;;22.60;99.90;;;;;;5084117;28;20244;-83
2022/09/15 08:32:22;;;;;;;5.03;2.65;;;22.60;99.90;;;;;;5078455;28;20357;-83
2022/09/15 08:34:48;;;;;;;5.47;2.60;;;22.60;99.90;;;;;;5084257;28;20021;-83
2022/09/15 08:37:13;;;;;;;6.50;2.42;;;22.50;99.90;;;;;;5075981;28;20316;-83
2022/09/15 08:39:39;;;;;;;5.38;2.55;;;22.30;99.90;;;;;;5082624;28;20024;-83
2022/09/15 08:42:08;;;;;;;4.78;2.67;;;22.40;99.90;;;;;;5080268;28;20021;-83
2022/09/15 08:44:52;;;;;;;6.78;3.47;;;22.40;99.90;;;;;;5083159;28;20008;-83
2022/09/15 08:47:34;;;;;;;7.68;3.20;;;22.40;99.90;;;;;;5083910;28;20305;-83
2022/09/15 08:50:19;;;;;;;6.65;3.35;;;22.40;99.90;;;;;;5082467;28;20020;-83
2022/09/15 08:53:11;;;;;;;7.72;3.20;;;22.40;99.90;;;;;;5081438;28;20012;-83
2022/09/15 08:55:37;;;;;;;6.82;3.30;;;22.50;99.90;;;;;;5081133;28;20027;-83
2022/09/15 08:58:04;;;;;;;9.35;3.72;;;22.50;99.90;;;;;;5082537;28;20060;-83
2022/09/15 09:00:31;;;;;;;6.22;3.25;;;22.40;99.90;;;;;;5082829;28;20224;-83
2022/09/15 09:02:57;;;;;;;6.57;3.50;;;22.50;99.90;;;;;;5078382;28;20538;-83
2022/09/15 09:06:00;;;;;;;6.55;3.25;;;22.70;99.90;;;;;;5082277;28;20058;-83
2022/09/15 09:08:50;;;;;;;6.03;3.10;;;22.80;99.90;;;;;;5077620;28;20293;-83
2022/09/15 09:11:29;;;;;;;9.75;3.33;;;22.80;99.90;;;;;;5082740;28;20028;-87
2022/09/15 09:14:04;;;;;;;6.45;3.00;;;22.90;99.90;;;;;;5076998;28;20104;-84
2022/09/15 09:16:43;;;;;;;6.63;3.28;;;23.10;99.90;;;;;;5081513;28;20242;-85
2022/09/15 09:19:21;;;;;;;5.80;2.95;;;23.20;99.90;;;;;;5070651;28;20074;-85
2022/09/15 09:21:54;;;;;;;6.57;3.53;;;23.30;99.90;;;;;;5083022;28;20312;-83
2022/09/15 09:24:35;;;;;;;7.25;3.15;;;23.10;99.90;;;;;;5082085;28;20013;-84
2022/09/15 09:27:02;;;;;;;11.00;3.40;;;23.10;99.90;;;;;;5082505;28;20024;-83
2022/09/15 09:29:39;;;;;;;6.65;3.30;;;23.10;99.90;;;;;;5081599;28;20088;-83
2022/09/15 09:32:16;;;;;;;7.18;3.47;;;23.30;99.90;;;;;;5076319;28;20190;-83
2022/09/15 09:35:14;;;;;;;6.28;2.92;;;23.50;99.90;;;;;;5076377;28;20025;-84
2022/09/15 09:37:43;;;;;;;6.18;3.08;;;23.70;99.90;;;;;;5074551;28;20047;-82
2022/09/15 09:40:15;;;;;;;4.85;3.03;;;23.70;99.90;;;;;;5081864;28;20111;-83
2022/09/15 09:42:42;;;;;;;7.60;3.42;;;23.70;99.90;;;;;;5079045;28;20052;-83
2022/09/15 09:45:15;;;;;;;6.68;3.40;;;23.70;99.90;;;;;;5081758;28;20358;-84
2022/09/15 09:47:42;;;;;;;5.90;3.00;;;23.60;99.90;;;;;;5077342;28;20147;-85
2022/09/15 09:50:56;;;;;;;7.18;3.70;;;23.70;99.90;;;;;;5037660;27;20065;-84
2022/09/15 09:53:32;;;;;;;8.65;3.33;;;23.60;99.90;;;;;;5017722;28;20428;-84
2022/09/15 09:56:26;;;;;;;9.98;3.60;;;23.70;99.90;;;;;;5030261;28;20046;-85
2022/09/15 09:58:53;;;;;;;9.80;4.17;;;23.80;99.90;;;;;;5032203;28;20330;-86
2022/09/15 10:01:23;;;;;;;6.60;3.65;;;23.80;99.90;;;;;;5037181;28;20056;-85
2022/09/15 10:04:08;;;;;;;7.28;4.28;;;23.70;99.90;;;;;;5042376;28;20221;-84
2022/09/15 10:06:34;;;;;;;6.18;4.18;;;23.60;99.90;;;;;;5040855;28;20280;-85
2022/09/15 10:09:07;;;;;;;9.15;4.90;;;23.50;99.90;;;;;;5041142;28;20036;-84
2022/09/15 10:11:42;;;;;;;8.68;4.32;;;23.60;99.90;;;;;;5035188;28;20144;-84
2022/09/15 10:14:16;;;;;;;11.05;5.13;;;23.80;99.90;;;;;;5041478;28;20040;-84
2022/09/15 10:16:42;;;;;;;12.57;4.68;;;23.90;99.90;;;;;;5041292;28;20045;-83
2022/09/15 10:19:13;;;;;;;7.00;4.03;;;23.80;99.90;;;;;;5041371;28;20092;-83
2022/09/15 10:21:38;;;;;;;8.93;4.75;;;23.80;99.90;;;;;;5040010;28;20021;-85
2022/09/15 10:24:26;;;;;;;8.68;4.50;;;24.00;99.90;;;;;;5040055;28;20073;-85
2022/09/15 10:27:14;;;;;;;9.48;5.32;;;24.00;99.90;;;;;;5040828;28;20051;-86
2022/09/15 10:29:40;;;;;;;8.52;4.25;;;24.10;99.90;;;;;;5039520;28;20063;-85
2022/09/15 10:32:28;;;;;;;7.72;4.68;;;24.10;99.90;;;;;;5041429;28;20049;-85
2022/09/15 10:35:03;;;;;;;7.03;3.85;;;24.20;99.90;;;;;;5041553;28;20017;-85
2022/09/15 10:37:59;;;;;;;7.47;4.38;;;24.30;99.90;;;;;;5040862;28;20029;-86
2022/09/15 10:40:40;;;;;;;6.38;4.10;;;24.40;99.90;;;;;;5040954;28;20009;-84
2022/09/15 10:43:12;;;;;;;7.20;4.78;;;24.60;99.90;;;;;;5031263;28;20333;-85
2022/09/15 10:45:40;;;;;;;6.75;4.28;;;24.60;99.90;;;;;;5041250;28;20021;-85
2022/09/15 10:48:39;;;;;;;7.93;4.80;;;24.60;99.90;;;;;;5040133;28;20044;-84
2022/09/15 10:51:10;;;;;;;7.07;4.90;;;24.60;99.90;;;;;;5038126;28;20033;-85
2022/09/15 10:54:19;;;;;;;11.95;6.10;;;24.70;99.90;;;;;;5029281;28;20101;-84
2022/09/15 10:56:48;;;;;;;10.60;5.50;;;25.00;99.90;;;;;;5023974;28;20098;-85
2022/09/15 10:59:44;;;;;;;10.40;5.38;;;25.20;99.90;;;;;;5030143;28;20045;-84
2022/09/15 11:02:19;;;;;;;11.98;6.00;;;25.20;99.90;;;;;;5030065;28;20025;-85
2022/09/15 11:05:13;;;;;;;10.48;5.93;;;25.10;99.90;;;;;;5029842;28;20021;-85
2022/09/15 11:07:39;;;;;;;8.63;6.00;;;25.10;99.90;;;;;;5026030;28;20036;-83
2022/09/15 11:10:16;;;;;;;9.63;5.45;;;25.10;99.90;;;;;;5029608;28;20031;-82
2022/09/15 11:13:18;;;;;;;7.28;5.82;;;25.10;99.90;;;;;;5029476;28;20082;-85
2022/09/15 11:15:56;;;;;;;11.13;6.50;;;24.90;99.90;;;;;;5024636;28;20025;-84
2022/09/15 11:18:27;;;;;;;15.35;6.75;;;24.90;99.90;;;;;;5028776;28;20044;-84
2022/09/15 11:20:59;;;;;;;17.70;6.85;;;24.70;99.90;;;;;;5029917;28;20025;-85
2022/09/15 11:23:32;;;;;;;10.38;6.45;;;24.70;99.90;;;;;;5029731;28;20014;-84
2022/09/15 11:26:16;;;;;;;12.02;6.30;;;24.70;99.90;;;;;;5029259;28;20037;-86
2022/09/15 11:28:51;;;;;;;9.63;6.05;;;24.60;99.90;;;;;;5029559;28;20076;-84
2022/09/15 11:31:25;;;;;;;9.85;5.65;;;24.50;99.90;;;;;;5023730;28;20037;-84
2022/09/15 11:34:01;;;;;;;8.20;5.47;;;24.20;99.90;;;;;;5029474;28;20045;-84
2022/09/15 11:36:36;;;;;;;8.77;4.95;;;23.90;99.90;;;;;;5029597;28;20029;-84
2022/09/15 11:39:22;;;;;;;5.90;3.65;;;23.80;99.90;;;;;;5029652;28;20585;-84
2022/09/15 11:41:55;;;;;;;4.38;3.25;;;23.90;99.90;;;;;;5029427;28;20018;-85
2022/09/15 11:44:27;;;;;;;5.30;3.33;;;24.10;99.90;;;;;;5029553;28;20662;-84
2022/09/15 11:47:27;;;;;;;6.97;3.90;;;24.20;99.90;;;;;;5023837;28;20018;-84
2022/09/15 11:50:13;;;;;;;5.80;3.40;;;24.30;99.90;;;;;;5029274;28;20021;-85
2022/09/15 11:52:45;;;;;;;6.78;2.97;;;24.20;99.90;;;;;;5029162;28;20022;-85
2022/09/15 11:55:29;;;;;;;7.00;3.17;;;24.60;99.90;;;;;;5029785;28;20356;-84
2022/09/15 11:58:17;;;;;;;3.57;2.03;;;24.80;99.90;;;;;;5029120;28;20460;-82
2022/09/15 12:01:10;;;;;;;3.60;2.10;;;25.20;99.90;;;;;;5029512;28;20055;-83
2022/09/15 12:03:51;;;;;;;6.63;1.92;;;25.50;99.90;;;;;;5026108;28;20059;-83
2022/09/15 12:06:40;;;;;;;5.45;1.58;;;25.90;99.90;;;;;;5029266;28;20029;-83
2022/09/15 12:09:11;;;;;;;5.22;2.17;;;26.10;99.90;;;;;;5023546;28;20022;-83
2022/09/15 12:11:45;;;;;;;2.88;1.63;;;26.10;99.90;;;;;;5028777;28;20501;-83
2022/09/15 12:14:36;;;;;;;3.80;1.50;;;26.20;99.90;;;;;;5029293;28;20033;-85
2022/09/15 12:17:04;;;;;;;5.35;1.27;;;26.60;99.90;;;;;;5027625;28;20049;-86
2022/09/15 12:19:36;;;;;;;3.85;1.25;;;26.80;99.90;;;;;;5029348;28;20123;-87
2022/09/15 12:22:24;;;;;;;2.00;1.10;;;26.70;99.90;;;;;;5029437;28;20021;-86
2022/09/15 12:25:01;;;;;;;1.42;0.88;;;26.80;99.90;;;;;;5024882;28;20037;-84
2022/09/15 12:27:27;;;;;;;1.77;0.88;;;27.10;99.90;;;;;;5025477;28;20497;-88
2022/09/15 12:29:55;;;;;;;2.17;0.60;;;27.30;99.90;;;;;;5029707;28;20033;-85
2022/09/15 12:32:23;;;;;;;2.00;0.77;;;27.20;99.90;;;;;;5032017;28;20053;-86
2022/09/15 12:35:00;;;;;;;1.48;0.80;;;27.50;99.90;;;;;;5039064;28;20355;-85
2022/09/15 12:37:41;;;;;;;1.85;0.75;;;27.50;99.90;;;;;;5042766;28;20033;-85
2022/09/15 12:40:32;;;;;;;1.23;0.55;;;27.30;99.90;;;;;;5042179;28;20017;-86
2022/09/15 12:43:00;;;;;;;1.27;0.70;;;27.30;99.90;;;;;;5043465;28;20068;-85
2022/09/15 12:45:33;;;;;;;2.05;0.70;;;27.00;99.90;;;;;;5040588;28;20029;-85
2022/09/15 12:48:12;;;;;;;1.63;0.50;;;26.60;99.90;;;;;;5031907;28;20022;-86
2022/09/15 12:50:41;;;;;;;2.40;0.77;;;26.50;99.90;;;;;;5031928;28;20482;-85
2022/09/15 12:53:20;;;;;;;1.75;0.70;;;26.90;99.90;;;;;;5032253;28;20028;-85
2022/09/15 12:56:01;;;;;;;2.17;0.80;;;27.10;99.90;;;;;;5032015;28;20029;-85
2022/09/15 12:58:35;;;;;;;2.22;0.80;;;27.10;99.90;;;;;;5032396;28;20582;-85
2022/09/15 13:01:23;;;;;;;2.65;1.10;;;27.40;99.90;;;;;;5032208;28;20105;-85
2022/09/15 13:03:48;;;;;;;1.38;0.70;;;27.20;99.90;;;;;;5032354;28;20033;-84
2022/09/15 13:06:25;;;;;;;1.33;0.93;;;27.60;99.90;;;;;;5031467;28;20040;-85